createdAt,value
2018-05-27T00:01:07.991Z,4.50
2018-05-27T00:03:35.936Z,3.90
2018-05-27T00:06:03.519Z,3.73
2018-05-27T00:08:31.096Z,4.60
2018-05-27T00:10:58.761Z,4.10
2018-05-27T00:13:26.630Z,4.03
2018-05-27T00:15:54.238Z,3.83
2018-05-27T00:18:21.945Z,4.50
2018-05-27T00:20:49.646Z,3.70
2018-05-27T00:23:17.741Z,4.37
2018-05-27T00:25:45.333Z,3.80
2018-05-27T00:28:12.901Z,4.77
2018-05-27T00:30:40.519Z,4.80
2018-05-27T00:33:08.831Z,4.67
2018-05-27T00:35:36.652Z,4.60
2018-05-27T00:38:04.300Z,4.30
2018-05-27T00:40:32.144Z,4.17
2018-05-27T00:42:59.723Z,4.60
2018-05-27T00:45:27.326Z,5.07
2018-05-27T00:47:54.894Z,3.90
2018-05-27T00:50:22.966Z,4.97
2018-05-27T00:52:52.561Z,5.00
2018-05-27T00:55:20.146Z,4.80
2018-05-27T00:57:47.751Z,5.00
2018-05-27T01:00:15.463Z,4.60
2018-05-27T01:02:43.167Z,4.10
2018-05-27T01:05:10.723Z,4.63
2018-05-27T01:07:38.438Z,4.90
2018-05-27T01:10:06.133Z,4.70
2018-05-27T01:12:33.777Z,4.60
2018-05-27T01:15:01.761Z,4.80
2018-05-27T01:17:29.626Z,4.50
2018-05-27T01:19:59.230Z,4.83
2018-05-27T01:22:26.822Z,5.17
2018-05-27T01:24:54.414Z,4.93
2018-05-27T01:27:21.978Z,5.07
2018-05-27T01:29:49.588Z,4.70
2018-05-27T01:32:17.208Z,4.57
2018-05-27T01:34:45.047Z,3.80
2018-05-27T01:37:12.723Z,4.40
2018-05-27T01:39:40.317Z,5.10
2018-05-27T01:42:07.909Z,3.80
2018-05-27T01:44:35.572Z,3.90
2018-05-27T01:47:03.264Z,3.97
2018-05-27T01:49:31.694Z,3.80
2018-05-27T01:51:59.499Z,5.00
2018-05-27T01:54:27.080Z,4.67
2018-05-27T01:56:54.693Z,4.37
2018-05-27T01:59:22.303Z,5.40
2018-05-27T02:01:50.085Z,4.50
2018-05-27T02:04:17.675Z,4.90
2018-05-27T02:06:45.306Z,5.33
2018-05-27T02:09:12.968Z,5.57
2018-05-27T02:11:40.572Z,5.77
2018-05-27T02:14:08.273Z,5.30
2018-05-27T02:16:35.890Z,5.40
2018-05-27T02:19:03.486Z,5.43
2018-05-27T02:21:31.234Z,5.80
2018-05-27T02:23:58.897Z,5.17
2018-05-27T02:26:26.504Z,5.63
2018-05-27T02:28:54.210Z,5.70
2018-05-27T02:31:21.814Z,5.93
2018-05-27T02:33:49.687Z,5.20
2018-05-27T02:36:17.534Z,6.10
2018-05-27T02:38:45.361Z,6.50
2018-05-27T02:41:13.002Z,5.03
2018-05-27T02:43:40.579Z,6.27
2018-05-27T02:46:08.238Z,6.20
2018-05-27T02:48:36.096Z,5.30
2018-05-27T02:51:04.117Z,6.40
2018-05-27T02:53:31.755Z,5.83
2018-05-27T02:55:59.359Z,6.40
2018-05-27T02:58:26.965Z,6.30
2018-05-27T03:00:54.953Z,7.03
2018-05-27T03:03:22.577Z,6.00
2018-05-27T03:05:50.464Z,7.43
2018-05-27T03:08:18.323Z,7.33
2018-05-27T03:10:46.290Z,6.93
2018-05-27T03:13:14.149Z,7.70
2018-05-27T03:15:41.812Z,7.00
2018-05-27T03:18:09.791Z,7.43
2018-05-27T03:20:37.383Z,8.80
2018-05-27T03:23:04.978Z,7.43
2018-05-27T03:25:32.984Z,8.07
2018-05-27T03:28:00.595Z,7.27
2018-05-27T03:30:28.294Z,7.63
2018-05-27T03:32:56.275Z,7.40
2018-05-27T03:35:23.903Z,7.73
2018-05-27T03:37:51.553Z,7.57
2018-05-27T03:40:19.141Z,7.40
2018-05-27T03:42:46.992Z,7.97
2018-05-27T03:45:14.632Z,8.13
2018-05-27T03:47:42.296Z,7.17
2018-05-27T03:50:09.898Z,8.77
2018-05-27T03:52:37.550Z,7.70
2018-05-27T03:55:05.192Z,8.03
2018-05-27T03:57:32.794Z,8.23
2018-05-27T04:00:00.388Z,8.33
2018-05-27T04:02:29.146Z,8.73
2018-05-27T04:08:10.373Z,8.57
2018-05-27T04:10:37.947Z,8.40
2018-05-27T04:13:05.530Z,8.30
2018-05-27T04:15:33.376Z,8.00
2018-05-27T04:18:00.955Z,8.00
2018-05-27T04:20:28.558Z,8.70
2018-05-27T04:22:56.160Z,8.00
2018-05-27T04:25:23.740Z,9.80
2018-05-27T04:27:51.344Z,8.13
2018-05-27T04:30:18.946Z,8.67
2018-05-27T04:32:46.606Z,9.20
2018-05-27T04:35:14.325Z,9.50
2018-05-27T04:37:41.900Z,8.30
2018-05-27T04:40:09.728Z,9.47
2018-05-27T04:42:37.339Z,8.57
2018-05-27T04:45:04.936Z,9.87
2018-05-27T04:47:32.617Z,9.23
2018-05-27T04:50:00.222Z,9.17
2018-05-27T04:52:27.838Z,8.87
2018-05-27T04:54:55.454Z,9.27
2018-05-27T04:57:23.146Z,8.17
2018-05-27T04:59:50.783Z,9.23
2018-05-27T05:02:18.743Z,9.17
2018-05-27T05:04:46.680Z,9.50
2018-05-27T05:07:14.265Z,8.90
2018-05-27T05:09:42.311Z,9.50
2018-05-27T05:12:09.974Z,9.47
2018-05-27T05:14:37.563Z,8.73
2018-05-27T05:17:05.184Z,8.93
2018-05-27T05:19:32.814Z,10.13
2018-05-27T05:22:00.450Z,10.10
2018-05-27T05:24:28.252Z,9.30
2018-05-27T05:26:55.847Z,9.20
2018-05-27T05:29:23.438Z,9.03
2018-05-27T05:31:51.037Z,9.10
2018-05-27T05:34:18.639Z,8.87
2018-05-27T05:36:46.753Z,8.57
2018-05-27T05:39:14.343Z,8.43
2018-05-27T05:41:41.953Z,8.20
2018-05-27T05:44:09.611Z,8.87
2018-05-27T05:46:37.268Z,9.67
2018-05-27T05:49:04.866Z,8.30
2018-05-27T05:51:32.719Z,9.27
2018-05-27T05:54:00.429Z,9.63
2018-05-27T05:56:28.084Z,9.40
2018-05-27T05:58:55.673Z,9.97
2018-05-27T06:01:23.538Z,8.30
2018-05-27T06:03:51.127Z,9.17
2018-05-27T06:06:18.955Z,8.57
2018-05-27T06:08:46.680Z,8.67
2018-05-27T06:11:14.331Z,8.60
2018-05-27T06:13:42.186Z,8.37
2018-05-27T06:16:09.790Z,8.53
2018-05-27T06:18:37.431Z,9.00
2018-05-27T06:21:05.629Z,10.40
2018-05-27T06:23:33.293Z,8.40
2018-05-27T06:26:00.903Z,9.10
2018-05-27T06:28:28.571Z,8.70
2018-05-27T06:30:56.317Z,9.57
2018-05-27T06:33:23.901Z,8.57
2018-05-27T06:35:51.903Z,9.30
2018-05-27T06:38:19.577Z,9.07
2018-05-27T06:40:47.305Z,8.17
2018-05-27T06:43:14.941Z,7.87
2018-05-27T06:45:42.561Z,8.40
2018-05-27T06:48:10.162Z,7.07
2018-05-27T06:50:38.031Z,8.60
2018-05-27T06:53:05.620Z,7.87
2018-05-27T06:55:33.216Z,8.77
2018-05-27T06:58:00.826Z,7.17
2018-05-27T07:00:28.862Z,7.80
2018-05-27T07:02:56.454Z,7.37
2018-05-27T07:05:24.163Z,7.03
2018-05-27T07:07:52.719Z,7.50
2018-05-27T07:10:20.314Z,7.50
2018-05-27T07:12:47.962Z,8.47
2018-05-27T07:15:15.565Z,7.03
2018-05-27T07:17:43.616Z,7.17
2018-05-27T07:20:11.242Z,6.67
2018-05-27T07:22:38.803Z,7.33
2018-05-27T07:25:06.535Z,6.17
2018-05-27T07:27:34.249Z,7.87
2018-05-27T07:30:01.871Z,5.47
2018-05-27T07:32:29.804Z,7.10
2018-05-27T07:34:57.553Z,5.93
2018-05-27T07:37:25.859Z,5.00
2018-05-27T07:39:53.451Z,5.43
2018-05-27T07:42:21.106Z,5.73
2018-05-27T07:44:48.729Z,5.47
2018-05-27T07:47:16.382Z,4.37
2018-05-27T07:49:44.145Z,5.23
2018-05-27T07:52:11.841Z,4.33
2018-05-27T07:54:39.413Z,4.70
2018-05-27T07:57:07.112Z,4.70
2018-05-27T07:59:34.724Z,4.47
2018-05-27T08:02:02.448Z,4.50
2018-05-27T08:04:30.008Z,4.67
2018-05-27T08:06:57.597Z,3.47
2018-05-27T08:09:25.176Z,5.00
2018-05-27T08:11:52.777Z,4.70
2018-05-27T08:14:20.612Z,4.73
2018-05-27T08:16:48.228Z,4.20
2018-05-27T08:19:16.177Z,4.30
2018-05-27T08:21:44.006Z,6.50
2018-05-27T08:24:11.942Z,3.90
2018-05-27T08:26:39.949Z,4.47
2018-05-27T08:29:07.560Z,4.60
2018-05-27T08:31:35.139Z,4.60
2018-05-27T08:34:03.048Z,4.27
2018-05-27T08:36:30.602Z,4.13
2018-05-27T08:38:58.169Z,3.70
2018-05-27T08:41:25.790Z,4.00
2018-05-27T08:43:53.347Z,4.43
2018-05-27T08:46:21.143Z,4.13
2018-05-27T08:48:48.740Z,4.77
2018-05-27T08:51:16.299Z,4.50
2018-05-27T08:53:44.140Z,4.30
2018-05-27T08:56:12.565Z,4.33
2018-05-27T08:58:40.408Z,3.90
2018-05-27T09:01:08.037Z,4.13
2018-05-27T09:03:35.617Z,3.50
2018-05-27T09:06:03.202Z,4.03
2018-05-27T09:08:30.834Z,4.20
2018-05-27T09:10:58.409Z,5.10
2018-05-27T09:13:25.984Z,4.87
2018-05-27T09:15:54.258Z,4.20
2018-05-27T09:18:21.839Z,4.60
2018-05-27T09:20:49.646Z,4.00
2018-05-27T09:23:17.303Z,3.87
2018-05-27T09:25:44.953Z,3.70
2018-05-27T09:28:12.544Z,4.23
2018-05-27T09:30:40.142Z,3.90
2018-05-27T09:33:07.719Z,4.50
2018-05-27T09:35:54.230Z,3.53
2018-05-27T09:38:22.161Z,3.47
2018-05-27T09:40:50.056Z,3.47
2018-05-27T09:43:17.685Z,3.47
2018-05-27T09:45:45.284Z,4.33
2018-05-27T09:48:13.274Z,4.37
2018-05-27T09:50:40.863Z,4.03
2018-05-27T09:53:08.485Z,4.10
2018-05-27T09:55:36.484Z,3.03
2018-05-27T09:58:04.330Z,3.50
2018-05-27T10:00:32.237Z,4.30
2018-05-27T10:02:59.874Z,4.10
2018-05-27T10:05:27.726Z,3.80
2018-05-27T10:07:55.284Z,3.73
2018-05-27T10:10:22.852Z,4.00
2018-05-27T10:12:50.727Z,4.57
2018-05-27T10:15:18.306Z,4.30
2018-05-27T10:17:46.104Z,3.63
2018-05-27T10:20:13.790Z,3.83
2018-05-27T10:22:41.356Z,3.50
2018-05-27T10:25:08.940Z,3.60
2018-05-27T10:27:36.851Z,3.33
2018-05-27T10:30:04.663Z,3.93
2018-05-27T10:32:32.237Z,3.60
2018-05-27T10:35:00.166Z,3.87
2018-05-27T10:37:28.120Z,4.00
2018-05-27T10:39:55.681Z,4.40
2018-05-27T10:42:23.699Z,5.57
2018-05-27T10:44:51.629Z,4.43
2018-05-27T10:47:19.235Z,3.93
2018-05-27T10:49:46.837Z,3.17
2018-05-27T10:52:14.673Z,4.27
2018-05-27T10:54:42.345Z,3.70
2018-05-27T10:57:09.941Z,3.90
2018-05-27T10:59:37.710Z,3.77
2018-05-27T11:02:05.785Z,3.67
2018-05-27T11:04:33.341Z,3.57
2018-05-27T11:07:00.984Z,3.63
2018-05-27T11:09:28.549Z,4.20
2018-05-27T11:11:56.468Z,3.40
2018-05-27T11:14:24.296Z,4.27
2018-05-27T11:16:51.992Z,4.00
2018-05-27T11:19:20.113Z,3.20
2018-05-27T11:21:47.931Z,3.40
2018-05-27T11:24:15.518Z,3.60
2018-05-27T11:26:43.133Z,3.13
2018-05-27T11:29:10.701Z,3.83
2018-05-27T11:31:38.274Z,4.07
2018-05-27T11:34:06.194Z,3.10
2018-05-27T11:36:33.795Z,3.20
2018-05-27T11:39:01.422Z,3.40
2018-05-27T11:41:29.198Z,3.10
2018-05-27T11:43:56.756Z,3.10
2018-05-27T11:46:24.324Z,3.63
2018-05-27T11:48:52.428Z,3.13
2018-05-27T11:51:19.996Z,3.60
2018-05-27T11:53:47.572Z,4.20
2018-05-27T11:56:15.313Z,3.40
2018-05-27T11:58:42.883Z,4.20
2018-05-27T12:01:10.448Z,3.27
2018-05-27T12:03:38.063Z,3.30
2018-05-27T12:06:05.635Z,3.60
2018-05-27T12:08:33.277Z,3.40
2018-05-27T12:11:00.844Z,3.80
2018-05-27T12:13:28.433Z,3.70
2018-05-27T12:15:56.391Z,3.93
2018-05-27T12:18:24.039Z,3.13
2018-05-27T12:20:51.993Z,3.17
2018-05-27T12:23:19.580Z,3.67
2018-05-27T12:25:47.221Z,3.63
2018-05-27T12:28:14.811Z,4.10
2018-05-27T12:30:42.653Z,3.93
2018-05-27T12:33:10.242Z,4.10
2018-05-27T12:35:37.847Z,3.47
2018-05-27T12:38:05.998Z,3.67
2018-05-27T12:40:33.588Z,3.20
2018-05-27T12:43:01.172Z,3.43
2018-05-27T12:45:29.198Z,3.53
2018-05-27T12:47:56.795Z,3.17
2018-05-27T12:50:24.441Z,3.50
2018-05-27T12:52:52.060Z,3.60
2018-05-27T12:55:19.654Z,3.57
2018-05-27T12:57:47.341Z,3.60
2018-05-27T13:00:14.933Z,3.73
2018-05-27T13:02:45.617Z,3.83
2018-05-27T13:05:13.201Z,4.00
2018-05-27T13:07:40.771Z,4.13
2018-05-27T13:10:08.381Z,4.83
2018-05-27T13:12:36.001Z,3.53
2018-05-27T13:15:03.584Z,3.40
2018-05-27T13:17:31.197Z,4.10
2018-05-27T13:19:58.757Z,4.20
2018-05-27T13:22:26.424Z,3.77
2018-05-27T13:24:54.144Z,4.10
2018-05-27T13:27:21.739Z,4.07
2018-05-27T13:29:49.328Z,4.10
2018-05-27T13:32:17.296Z,4.53
2018-05-27T13:34:45.115Z,4.53
2018-05-27T13:37:12.789Z,3.73
2018-05-27T13:39:40.457Z,4.20
2018-05-27T13:42:08.707Z,3.87
2018-05-27T13:44:36.299Z,4.17
2018-05-27T13:47:03.936Z,4.23
2018-05-27T13:49:31.601Z,3.60
2018-05-27T13:51:59.232Z,3.80
2018-05-27T13:54:26.827Z,4.43
2018-05-27T13:56:54.461Z,4.03
2018-05-27T13:59:22.049Z,4.17
2018-05-27T14:01:49.632Z,4.27
2018-05-27T14:04:17.526Z,4.60
2018-05-27T14:06:45.340Z,4.07
2018-05-27T14:09:12.961Z,4.70
2018-05-27T14:11:40.544Z,4.23
2018-05-27T14:14:09.952Z,4.40
2018-05-27T14:16:37.576Z,4.07
2018-05-27T14:19:05.312Z,4.80
2018-05-27T14:21:32.895Z,5.10
2018-05-27T14:24:00.533Z,4.47
2018-05-27T14:26:28.119Z,4.60
2018-05-27T14:28:56.067Z,4.20
2018-05-27T14:31:23.661Z,4.13
2018-05-27T14:33:51.287Z,4.40
2018-05-27T14:36:19.059Z,4.87
2018-05-27T14:38:46.689Z,4.40
2018-05-27T14:41:14.251Z,4.20
2018-05-27T14:43:42.177Z,3.93
2018-05-27T14:46:09.827Z,4.80
2018-05-27T14:48:37.492Z,4.60
2018-05-27T14:51:05.071Z,4.13
2018-05-27T14:53:32.733Z,4.97
2018-05-27T14:56:00.387Z,5.20
2018-05-27T14:58:28.016Z,4.57
2018-05-27T15:00:55.854Z,4.43
2018-05-27T15:03:23.426Z,3.17
2018-05-27T15:05:51.154Z,4.23
2018-05-27T15:08:18.786Z,4.47
2018-05-27T15:10:46.403Z,4.67
2018-05-27T15:13:13.978Z,4.17
2018-05-27T15:15:41.628Z,4.27
2018-05-27T15:18:09.221Z,4.17
2018-05-27T15:20:36.799Z,5.17
2018-05-27T15:23:04.411Z,5.00
2018-05-27T15:25:31.985Z,5.10
2018-05-27T15:27:59.866Z,5.77
2018-05-27T15:30:27.816Z,4.77
2018-05-27T15:32:55.643Z,4.83
2018-05-27T15:35:23.239Z,4.37
2018-05-27T15:37:51.031Z,4.80
2018-05-27T15:40:18.646Z,4.97
2018-05-27T15:42:46.237Z,4.70
2018-05-27T15:45:13.827Z,4.63
2018-05-27T15:47:41.523Z,5.10
2018-05-27T15:50:09.639Z,5.00
2018-05-27T15:52:37.211Z,4.43
2018-05-27T15:55:04.842Z,4.77
2018-05-27T15:57:32.837Z,4.70
2018-05-27T16:00:00.397Z,5.70
2018-05-27T16:02:27.959Z,8.13
2018-05-27T16:04:55.776Z,10.40
2018-05-27T16:07:23.399Z,9.47
2018-05-27T16:09:51.053Z,7.47
2018-05-27T16:12:18.993Z,7.37
2018-05-27T16:14:46.578Z,7.60
2018-05-27T16:17:14.212Z,6.37
2018-05-27T16:19:41.900Z,7.07
2018-05-27T16:22:09.466Z,7.53
2018-05-27T16:24:37.025Z,8.20
2018-05-27T16:27:04.667Z,7.77
2018-05-27T16:29:32.488Z,7.97
2018-05-27T16:32:00.386Z,8.70
2018-05-27T16:34:27.969Z,8.20
2018-05-27T16:36:55.522Z,7.50
2018-05-27T16:39:23.097Z,7.47
2018-05-27T16:41:50.684Z,7.63
2018-05-27T16:44:18.249Z,7.27
2018-05-27T16:46:45.821Z,7.50
2018-05-27T16:49:13.423Z,7.30
2018-05-27T16:51:41.106Z,6.10
2018-05-27T16:54:08.659Z,6.60
2018-05-27T16:56:36.212Z,6.90
2018-05-27T16:59:03.895Z,7.00
2018-05-27T17:01:31.597Z,7.20
2018-05-27T17:03:59.184Z,7.37
2018-05-27T17:06:26.832Z,7.60
2018-05-27T17:08:54.435Z,7.67
2018-05-27T17:11:22.027Z,5.50
2018-05-27T17:13:49.573Z,5.03
2018-05-27T17:16:17.338Z,4.47
2018-05-27T17:18:44.913Z,4.03
2018-05-27T17:21:12.542Z,4.90
2018-05-27T17:23:40.250Z,4.67
2018-05-27T17:26:07.814Z,4.30
2018-05-27T17:28:35.484Z,4.07
2018-05-27T17:31:03.225Z,4.47
2018-05-27T17:33:31.161Z,3.97
2018-05-27T17:35:58.777Z,3.27
2018-05-27T17:38:26.873Z,3.10
2018-05-27T17:40:54.525Z,3.77
2018-05-27T17:43:22.352Z,3.30
2018-05-27T17:45:50.441Z,3.70
2018-05-27T17:48:18.136Z,3.20
2018-05-27T17:50:45.795Z,3.10
2018-05-27T17:53:13.487Z,3.37
2018-05-27T17:55:41.246Z,3.90
2018-05-27T17:58:09.193Z,2.90
2018-05-27T18:00:36.920Z,3.60
2018-05-27T18:03:04.629Z,3.57
2018-05-27T18:05:32.233Z,4.13
2018-05-27T18:07:59.977Z,4.70
2018-05-27T18:10:27.599Z,4.60
2018-05-27T18:12:55.195Z,4.47
2018-05-27T18:15:22.818Z,3.67
2018-05-27T18:17:50.537Z,4.90
2018-05-27T18:20:18.172Z,4.57
2018-05-27T18:22:45.791Z,4.57
2018-05-27T18:25:13.454Z,4.70
2018-05-27T18:27:41.037Z,5.80
2018-05-27T18:30:08.853Z,4.50
2018-05-27T18:32:36.847Z,4.53
2018-05-27T18:35:04.456Z,4.90
2018-05-27T18:37:32.185Z,4.87
2018-05-27T18:39:59.990Z,4.90
2018-05-27T18:42:27.609Z,5.60
2018-05-27T18:44:55.217Z,4.87
2018-05-27T18:47:22.820Z,6.00
2018-05-27T18:49:50.444Z,6.00
2018-05-27T18:52:18.016Z,6.50
2018-05-27T18:54:45.652Z,6.57
2018-05-27T18:57:13.681Z,7.10
2018-05-27T18:59:41.279Z,6.73
2018-05-27T19:02:08.847Z,7.20
2018-05-27T19:04:36.627Z,7.33
2018-05-27T19:07:04.201Z,5.73
2018-05-27T19:09:31.831Z,6.57
2018-05-27T19:11:59.930Z,6.47
2018-05-27T19:14:27.532Z,6.23
2018-05-27T19:16:55.389Z,7.53
2018-05-27T19:19:23.008Z,8.07
2018-05-27T19:21:50.669Z,7.10
2018-05-27T19:24:18.507Z,7.00
2018-05-27T19:26:46.072Z,7.50
2018-05-27T19:29:13.632Z,5.97
2018-05-27T19:31:41.956Z,7.30
2018-05-27T19:34:09.846Z,6.90
2018-05-27T19:36:37.507Z,8.13
2018-05-27T19:39:06.504Z,7.20
2018-05-27T19:41:34.155Z,6.17
2018-05-27T19:44:01.764Z,6.07
2018-05-27T19:46:29.437Z,7.13
2018-05-27T19:48:57.421Z,8.60
2018-05-27T19:51:24.973Z,7.73
2018-05-27T19:53:52.556Z,7.90
2018-05-27T19:56:20.268Z,7.53
2018-05-27T19:58:47.833Z,8.00
2018-05-27T20:01:15.394Z,7.60
2018-05-27T20:03:43.082Z,7.60
2018-05-27T20:06:10.885Z,7.20
2018-05-27T20:08:38.438Z,7.20
2018-05-27T20:11:06.362Z,5.57
2018-05-27T20:13:33.933Z,6.10
2018-05-27T20:16:01.793Z,5.50
2018-05-27T20:18:29.382Z,5.80
2018-05-27T20:20:56.999Z,6.40
2018-05-27T20:23:24.580Z,6.77
2018-05-27T20:25:52.149Z,5.40
2018-05-27T20:28:20.321Z,6.00
2018-05-27T20:30:47.907Z,6.83
2018-05-27T20:33:15.633Z,6.43
2018-05-27T20:35:43.577Z,4.27
2018-05-27T20:38:11.373Z,4.23
2018-05-27T20:40:38.927Z,3.60
2018-05-27T20:43:06.679Z,4.33
2018-05-27T20:45:34.243Z,4.60
2018-05-27T20:48:01.968Z,4.63
2018-05-27T20:50:29.859Z,3.70
2018-05-27T20:52:57.477Z,4.13
2018-05-27T20:55:25.059Z,3.10
2018-05-27T20:57:52.687Z,4.07
2018-05-27T21:00:20.248Z,3.37
2018-05-27T21:02:48.124Z,4.00
2018-05-27T21:05:16.137Z,3.43
2018-05-27T21:07:43.790Z,4.17
2018-05-27T21:10:11.466Z,4.30
2018-05-27T21:12:39.273Z,4.47
2018-05-27T21:15:06.941Z,4.37
2018-05-27T21:17:34.592Z,4.17
2018-05-27T21:20:02.168Z,4.80
2018-05-27T21:22:29.827Z,5.33
2018-05-27T21:24:57.554Z,5.53
2018-05-27T21:27:25.416Z,5.47
2018-05-27T21:29:53.115Z,5.40
2018-05-27T21:32:20.717Z,6.30
2018-05-27T21:34:48.317Z,6.03
2018-05-27T21:37:15.998Z,5.70
2018-05-27T21:39:43.757Z,5.33
2018-05-27T21:42:11.680Z,6.43
2018-05-27T21:44:39.381Z,5.83
2018-05-27T21:47:07.001Z,6.70
2018-05-27T21:49:34.669Z,5.67
2018-05-27T21:52:02.424Z,6.73
2018-05-27T21:54:30.338Z,5.60
2018-05-27T21:56:58.547Z,5.73
2018-05-27T21:59:26.434Z,7.77
2018-05-27T22:01:54.110Z,9.23
2018-05-27T22:04:21.747Z,8.97
2018-05-27T22:06:49.326Z,9.27
2018-05-27T22:09:17.406Z,8.80
2018-05-27T22:11:45.176Z,9.60
2018-05-27T22:14:13.044Z,10.40
2018-05-27T22:16:40.971Z,8.73
2018-05-27T22:19:08.559Z,10.23
2018-05-27T22:21:36.168Z,9.90
2018-05-27T22:24:03.788Z,10.23
2018-05-27T22:26:31.496Z,9.60
2018-05-27T22:28:59.323Z,9.37
2018-05-27T22:31:27.259Z,10.40
2018-05-27T22:33:55.275Z,10.17
2018-05-27T22:36:22.859Z,9.70
2018-05-27T22:38:50.720Z,10.47
2018-05-27T22:41:18.298Z,11.30
2018-05-27T22:43:46.005Z,10.60
2018-05-27T22:46:13.932Z,10.23
2018-05-27T22:48:41.749Z,10.73
2018-05-27T22:51:09.506Z,10.80
2018-05-27T22:53:37.319Z,10.13
2018-05-27T22:56:04.956Z,10.53
2018-05-27T22:58:32.766Z,12.00
2018-05-27T23:01:00.528Z,11.40
2018-05-27T23:03:28.232Z,11.73
2018-05-27T23:05:56.566Z,12.47
2018-05-27T23:08:24.735Z,11.50
2018-05-27T23:10:51.817Z,12.07
2018-05-27T23:13:19.536Z,11.43
2018-05-27T23:15:47.159Z,11.30
2018-05-27T23:18:14.799Z,11.70
2018-05-27T23:20:42.361Z,11.07
2018-05-27T23:23:10.220Z,11.87
2018-05-27T23:25:38.056Z,11.40
2018-05-27T23:28:05.621Z,11.33
2018-05-27T23:30:33.214Z,10.10
2018-05-27T23:33:01.207Z,10.67
2018-05-27T23:35:28.838Z,10.87
2018-05-27T23:37:56.402Z,11.23
2018-05-27T23:40:24.002Z,10.63
2018-05-27T23:42:51.563Z,12.30
2018-05-27T23:45:19.274Z,11.57
2018-05-27T23:47:47.114Z,10.90
2018-05-27T23:50:14.696Z,10.50
2018-05-27T23:52:42.331Z,10.10
2018-05-27T23:55:10.028Z,10.67
2018-05-27T23:57:37.601Z,10.60
